^^
Station Historical Data
Daily Summary for June 15, 2018 Units:  English    Metric   Both
« Previous Day
Next Day »
Daily Weekly Monthly Yearly Custom
  High: Low: Average:
Temperature: TemperatureF °F 75.6 °F 84.9 °F
Dew Point: DewpointF °F 64.8 °F 69 °F
Humidity: Humidity% 39% 60%
Wind Speed: WindSpeedMPHmph 2.3mph 7.9mph
Wind Gust: WindSpeedGustMPHmph - -
Wind- - South
Pressure: PressureIn in 29.70 in -
Precipitation: 0.00 in    
Historical Graphs
 
 
Tabular Data for June 15, 2018
Time Temperature Dew Point Pressure Wind Wind Speed Wind Gust Humidity Rainfall Rate (Hourly)
TemperatureF °F DewpointF °F PressureIn in Calm     Humidity% HourlyPrecipIn in
00:04 83.0 °F 70.0 °F 29.79 in SSE 3.5 mph 1.0 mph 65% 0.00 in
00:09 82.8 °F 69.8 °F 29.79 in South 8.1 mph 3.1 mph 65% 0.00 in
00:14 82.7 °F 69.7 °F 29.79 in SSE 5.8 mph 2.8 mph 65% 0.00 in
00:19 82.4 °F 69.9 °F 29.79 in SSE 8.1 mph 4.2 mph 66% 0.00 in
00:24 82.3 °F 69.8 °F 29.79 in SE 8.1 mph 3.0 mph 66% 0.00 in
00:29 82.0 °F 70.0 °F 29.79 in SE 5.8 mph 2.3 mph 67% 0.00 in
00:34 81.9 °F 69.9 °F 29.79 in SSE 8.1 mph 2.3 mph 67% 0.00 in
00:39 81.6 °F 70.0 °F 29.79 in SE 4.6 mph 2.3 mph 68% 0.00 in
00:44 81.4 °F 69.8 °F 29.79 in ESE 9.2 mph 1.9 mph 68% 0.00 in
00:49 81.2 °F 70.1 °F 29.79 in SE 6.9 mph 4.6 mph 69% 0.00 in
00:54 81.0 °F 69.9 °F 29.79 in SSW 4.6 mph 3.4 mph 69% 0.00 in
00:59 80.8 °F 70.1 °F 29.79 in ESE 7.0 mph 2.7 mph 70% 0.00 in
01:04 80.7 °F 70.0 °F 29.79 in SSE 8.1 mph 2.8 mph 70% 0.00 in
01:09 80.5 °F 70.2 °F 29.79 in SE 4.6 mph 2.2 mph 71% 0.00 in
01:14 80.3 °F 70.0 °F 29.79 in SE 5.8 mph 3.0 mph 71% 0.00 in
01:19 80.2 °F 70.4 °F 29.79 in SE 4.6 mph 2.4 mph 72% 0.00 in
01:24 80.0 °F 70.2 °F 29.79 in ESE 6.9 mph 1.8 mph 72% 0.00 in
01:29 79.8 °F 70.4 °F 29.79 in SSE 9.2 mph 4.7 mph 73% 0.00 in
01:34 79.8 °F 70.4 °F 29.79 in SW 6.9 mph 2.1 mph 73% 0.00 in
01:39 79.7 °F 70.3 °F 29.79 in SE 3.5 mph 1.5 mph 73% 0.00 in
01:44 79.6 °F 70.2 °F 29.79 in SSW 8.1 mph 4.9 mph 73% 0.00 in
01:49 79.6 °F 70.2 °F 29.79 in South 5.0 mph 4.5 mph 73% 0.00 in
01:54 79.6 °F 70.6 °F 29.78 in SSW 3.5 mph 2.3 mph 74% 0.00 in
01:59 79.4 °F 70.4 °F 29.78 in South 3.5 mph 2.8 mph 74% 0.00 in
02:04 79.3 °F 70.3 °F 29.78 in SSW 8.1 mph 4.8 mph 74% 0.00 in
02:09 79.2 °F 70.2 °F 29.78 in ESE 6.9 mph 3.9 mph 74% 0.00 in
02:14 79.1 °F 70.5 °F 29.78 in ESE 3.5 mph 1.0 mph 75% 0.00 in
02:19 78.9 °F 70.3 °F 29.78 in SSE 4.6 mph 2.5 mph 75% 0.00 in
02:24 78.7 °F 70.1 °F 29.78 in SSE 2.3 mph 1.8 mph 75% 0.00 in
02:29 78.5 °F 70.3 °F 29.78 in ESE 8.1 mph 3.1 mph 76% 0.00 in
02:34 78.5 °F 70.3 °F 29.78 in SSE 5.8 mph 1.7 mph 76% 0.00 in
02:39 78.4 °F 70.2 °F 29.78 in SSW 3.5 mph 1.2 mph 76% 0.00 in
02:44 78.3 °F 70.1 °F 29.78 in SSE 3.5 mph 2.2 mph 76% 0.00 in
02:49 78.1 °F 69.9 °F 29.78 in ESE 3.5 mph 2.2 mph 76% 0.00 in
02:54 78.0 °F 70.2 °F 29.79 in SE 3.5 mph 2.2 mph 77% 0.00 in
02:59 78.0 °F 70.2 °F 29.79 in SSW 5.8 mph 3.4 mph 77% 0.00 in
03:03 77.9 °F 70.1 °F 29.78 in NNW 3.5 mph 1.0 mph 77% 0.00 in
03:09 77.9 °F 70.1 °F 29.78 in SSW 4.6 mph 1.5 mph 77% 0.00 in
03:14 78.0 °F 69.8 °F 29.78 in SSE 8.1 mph 2.1 mph 76% 0.00 in
03:19 78.0 °F 69.8 °F 29.78 in South 3.5 mph 3.2 mph 76% 0.00 in
03:24 77.9 °F 69.7 °F 29.78 in SE 5.8 mph 2.8 mph 76% 0.00 in
03:29 77.9 °F 69.7 °F 29.78 in SSW 6.9 mph 2.6 mph 76% 0.00 in
03:34 77.8 °F 69.6 °F 29.78 in ENE 9.2 mph 2.8 mph 76% 0.00 in
03:39 77.8 °F 69.6 °F 29.78 in South 5.8 mph 4.4 mph 76% 0.00 in
03:44 77.7 °F 69.5 °F 29.78 in South 5.8 mph 2.0 mph 76% 0.00 in
03:49 77.6 °F 69.4 °F 29.78 in SE 8.1 mph 3.2 mph 76% 0.00 in
03:54 77.6 °F 69.4 °F 29.78 in SSE 8.1 mph 2.6 mph 76% 0.00 in
03:59 77.7 °F 69.5 °F 29.78 in SE 9.2 mph 4.6 mph 76% 0.00 in
04:04 77.6 °F 69.4 °F 29.78 in South 8.1 mph 1.2 mph 76% 0.00 in
04:09 77.5 °F 69.3 °F 29.78 in South 9.2 mph 4.3 mph 76% 0.00 in
04:14 77.5 °F 69.3 °F 29.78 in South 5.8 mph 3.0 mph 76% 0.00 in
04:19 77.3 °F 69.1 °F 29.78 in SE 5.8 mph 3.2 mph 76% 0.00 in
04:24 77.2 °F 69.4 °F 29.78 in South 3.5 mph 2.7 mph 77% 0.00 in
04:29 77.1 °F 69.3 °F 29.78 in SSW 3.5 mph 2.0 mph 77% 0.00 in
04:34 77.0 °F 69.2 °F 29.78 in South 8.1 mph 3.4 mph 77% 0.00 in
04:39 76.9 °F 69.1 °F 29.78 in South 9.2 mph 2.6 mph 77% 0.00 in
04:44 76.8 °F 69.4 °F 29.78 in SSW 4.6 mph 4.3 mph 78% 0.00 in
04:49 76.8 °F 69.0 °F 29.78 in South 6.9 mph 5.3 mph 77% 0.00 in
04:54 76.8 °F 69.0 °F 29.78 in South 3.5 mph 3.7 mph 77% 0.00 in
04:59 76.8 °F 69.0 °F 29.78 in SE 10.4 mph 5.1 mph 77% 0.00 in
05:04 76.7 °F 68.9 °F 29.77 in South 8.1 mph 3.8 mph 77% 0.00 in
05:09 76.7 °F 68.9 °F 29.77 in South 8.1 mph 3.6 mph 77% 0.00 in
05:14 76.7 °F 68.9 °F 29.77 in SSE 5.8 mph 4.3 mph 77% 0.00 in
05:19 76.7 °F 68.9 °F 29.78 in SSE 6.9 mph 4.6 mph 77% 0.00 in
05:24 76.6 °F 68.8 °F 29.77 in SSE 4.6 mph 2.9 mph 77% 0.00 in
05:29 76.5 °F 68.7 °F 29.77 in South 8.1 mph 4.3 mph 77% 0.00 in
05:34 76.4 °F 68.7 °F 29.78 in SE 3.5 mph 3.1 mph 77% 0.00 in
05:39 76.4 °F 68.7 °F 29.78 in South 6.9 mph 3.3 mph 77% 0.00 in
05:44 76.2 °F 68.5 °F 29.77 in ESE 3.5 mph 2.4 mph 77% 0.00 in
05:49 76.2 °F 68.8 °F 29.77 in SSW 8.1 mph 4.7 mph 78% 0.00 in
05:54 76.1 °F 68.7 °F 29.77 in South 4.6 mph 3.0 mph 78% 0.00 in
05:59 76.0 °F 68.6 °F 29.77 in SSW 4.6 mph 1.6 mph 78% 0.00 in
06:04 75.8 °F 68.4 °F 29.78 in SE 5.8 mph 2.8 mph 78% 0.00 in
06:09 75.7 °F 68.4 °F 29.78 in SSW 4.0 mph 3.3 mph 78% 0.00 in
06:14 75.7 °F 68.4 °F 29.78 in SE 4.6 mph 4.8 mph 78% 0.00 in
06:19 75.6 °F 68.3 °F 29.78 in SE 4.6 mph 3.1 mph 78% 0.00 in
06:24 75.6 °F 68.6 °F 29.78 in South 4.6 mph 2.5 mph 79% 0.00 in
06:29 75.6 °F 68.6 °F 29.78 in East 8.1 mph 5.6 mph 79% 0.00 in
06:34 75.6 °F 68.3 °F 29.78 in South 4.6 mph 2.9 mph 78% 0.00 in
06:39 75.7 °F 68.4 °F 29.78 in SSW 3.5 mph 2.8 mph 78% 0.00 in
06:44 75.7 °F 68.4 °F 29.78 in SE 8.1 mph 2.2 mph 78% 0.00 in
06:49 75.8 °F 68.4 °F 29.78 in SSW 8.1 mph 3.9 mph 78% 0.00 in
06:54 76.1 °F 68.4 °F 29.78 in SE 10.4 mph 5.8 mph 77% 0.00 in
06:59 76.3 °F 68.6 °F 29.78 in SSE 5.0 mph 3.3 mph 77% 0.00 in
07:04 76.5 °F 68.7 °F 29.79 in SSE 5.8 mph 3.7 mph 77% 0.00 in
07:09 76.6 °F 68.5 °F 29.79 in South 9.2 mph 6.5 mph 76% 0.00 in
07:14 76.8 °F 68.7 °F 29.79 in SW 6.9 mph 3.6 mph 76% 0.00 in
07:19 77.0 °F 68.9 °F 29.79 in SSW 5.8 mph 3.9 mph 76% 0.00 in
07:24 77.1 °F 68.6 °F 29.79 in South 10.4 mph 2.9 mph 75% 0.00 in
07:29 77.3 °F 68.8 °F 29.79 in SE 6.9 mph 4.3 mph 75% 0.00 in
07:34 77.6 °F 69.0 °F 29.79 in South 10.4 mph 3.0 mph 75% 0.00 in
07:38 77.8 °F 68.8 °F 29.79 in SSW 4.6 mph 3.3 mph 74% 0.00 in
07:44 78.1 °F 69.1 °F 29.79 in SE 9.2 mph 3.9 mph 74% 0.00 in
07:49 78.4 °F 69.4 °F 29.79 in South 4.6 mph 4.3 mph 74% 0.00 in
07:54 78.7 °F 69.3 °F 29.79 in SSE 8.1 mph 3.5 mph 73% 0.00 in
07:59 78.9 °F 69.1 °F 29.78 in SSW 5.8 mph 4.4 mph 72% 0.00 in
08:04 79.2 °F 69.4 °F 29.79 in South 10.4 mph 6.5 mph 72% 0.00 in
08:09 79.4 °F 69.2 °F 29.79 in SSW 8.1 mph 5.0 mph 71% 0.00 in
08:14 79.7 °F 69.0 °F 29.79 in South 8.0 mph 4.8 mph 70% 0.00 in
08:19 79.9 °F 69.2 °F 29.79 in South 5.8 mph 2.9 mph 70% 0.00 in
08:24 80.1 °F 69.4 °F 29.79 in SSW 4.6 mph 4.6 mph 70% 0.00 in
08:29 80.3 °F 69.6 °F 29.79 in SE 9.2 mph 5.3 mph 70% 0.00 in
08:34 80.4 °F 69.7 °F 29.79 in SSW 3.5 mph 2.0 mph 70% 0.00 in
08:39 80.7 °F 69.6 °F 29.79 in South 4.6 mph 2.9 mph 69% 0.00 in
08:44 81.0 °F 69.4 °F 29.79 in North 11.5 mph 6.3 mph 68% 0.00 in
08:49 81.3 °F 69.7 °F 29.79 in SSW 6.9 mph 4.3 mph 68% 0.00 in
08:54 81.6 °F 70.0 °F 29.79 in South 6.9 mph 2.2 mph 68% 0.00 in
08:59 81.9 °F 69.9 °F 29.79 in West 2.3 mph 2.9 mph 67% 0.00 in
09:04 82.2 °F 70.1 °F 29.79 in South 6.9 mph 2.6 mph 67% 0.00 in
09:09 82.5 °F 69.5 °F 29.79 in South 11.5 mph 7.4 mph 65% 0.00 in
09:14 82.7 °F 69.7 °F 29.79 in South 3.5 mph 3.0 mph 65% 0.00 in
09:19 83.1 °F 69.7 °F 29.79 in South 8.1 mph 5.8 mph 64% 0.00 in
09:24 83.3 °F 69.8 °F 29.79 in SW 9.2 mph 3.0 mph 64% 0.00 in
09:29 83.6 °F 69.7 °F 29.79 in SSW 13.8 mph 7.1 mph 63% 0.00 in
09:34 83.9 °F 69.5 °F 29.78 in South 11.5 mph 4.8 mph 62% 0.00 in
09:39 84.1 °F 69.2 °F 29.78 in South 13.8 mph 6.6 mph 61% 0.00 in
09:44 84.3 °F 69.9 °F 29.78 in WSW 5.8 mph 2.8 mph 62% 0.00 in
09:49 84.5 °F 70.0 °F 29.78 in SSW 11.5 mph 3.6 mph 62% 0.00 in
09:54 84.7 °F 69.8 °F 29.78 in South 11.5 mph 7.1 mph 61% 0.00 in
09:59 85.0 °F 70.0 °F 29.78 in SSW 9.2 mph 3.6 mph 61% 0.00 in
10:04 85.4 °F 69.9 °F 29.78 in SE 11.5 mph 7.8 mph 60% 0.00 in
10:09 85.5 °F 70.0 °F 29.78 in South 16.1 mph 4.6 mph 60% 0.00 in
10:14 85.7 °F 70.7 °F 29.78 in South 6.0 mph 2.4 mph 61% 0.00 in
10:19 86.4 °F 70.9 °F 29.78 in South 7.0 mph 2.5 mph 60% 0.00 in
10:24 86.6 °F 70.1 °F 29.78 in ENE 10.4 mph 3.8 mph 58% 0.00 in
10:29 87.0 °F 71.4 °F 29.78 in South 10.4 mph 3.9 mph 60% 0.00 in
10:34 87.3 °F 70.7 °F 29.78 in South 8.1 mph 5.0 mph 58% 0.00 in
10:39 87.4 °F 71.3 °F 29.78 in SSW 6.9 mph 1.4 mph 59% 0.00 in
10:44 87.7 °F 70.1 °F 29.78 in SW 13.8 mph 5.9 mph 56% 0.00 in
10:49 88.0 °F 70.9 °F 29.78 in South 5.8 mph 3.9 mph 57% 0.00 in
10:54 88.5 °F 71.3 °F 29.78 in SSE 8.1 mph 1.9 mph 57% 0.00 in
10:59 89.0 °F 70.7 °F 29.78 in SSW 3.5 mph 2.8 mph 55% 0.00 in
11:04 89.5 °F 70.7 °F 29.78 in South 5.8 mph 3.5 mph 54% 0.00 in
11:09 89.4 °F 70.6 °F 29.78 in South 6.9 mph 4.6 mph 54% 0.00 in
11:14 89.2 °F 70.4 °F 29.78 in SSE 9.2 mph 5.7 mph 54% 0.00 in
11:19 89.2 °F 70.4 °F 29.78 in SW 3.5 mph 3.4 mph 54% 0.00 in
11:24 89.3 °F 69.9 °F 29.77 in South 11.5 mph 4.7 mph 53% 0.00 in
11:29 89.5 °F 70.1 °F 29.78 in SW 10.4 mph 5.8 mph 53% 0.00 in
11:34 89.9 °F 70.5 °F 29.78 in ESE 10.4 mph 4.2 mph 53% 0.00 in
11:39 90.5 °F 70.5 °F 29.78 in SE 3.5 mph 2.2 mph 52% 0.00 in
11:44 90.8 °F 69.6 °F 29.78 in SSE 5.8 mph 4.7 mph 50% 0.00 in
11:49 90.7 °F 70.1 °F 29.77 in SSW 6.9 mph 3.2 mph 51% 0.00 in
11:54 90.8 °F 70.2 °F 29.78 in South 2.3 mph 3.3 mph 51% 0.00 in
11:59 90.9 °F 70.3 °F 29.77 in SSE 13.8 mph 3.7 mph 51% 0.00 in
12:04 91.0 °F 69.8 °F 29.77 in South 11.5 mph 6.4 mph 50% 0.00 in
12:09 90.9 °F 69.7 °F 29.77 in SSW 11.5 mph 7.6 mph 50% 0.00 in
12:14 90.6 °F 70.0 °F 29.77 in SSW 9.2 mph 4.8 mph 51% 0.00 in
12:19 90.8 °F 70.7 °F 29.77 in SW 12.7 mph 6.3 mph 52% 0.00 in
12:24 91.3 °F 70.1 °F 29.77 in SW 4.6 mph 3.9 mph 50% 0.00 in
12:29 91.6 °F 69.7 °F 29.77 in South 4.6 mph 5.1 mph 49% 0.00 in
12:34 91.7 °F 69.2 °F 29.77 in East 11.5 mph 8.0 mph 48% 0.00 in
12:39 91.4 °F 69.6 °F 29.77 in SSW 11.0 mph 5.6 mph 49% 0.00 in
12:44 91.4 °F 69.6 °F 29.76 in South 9.2 mph 4.1 mph 49% 0.00 in
12:49 91.9 °F 71.2 °F 29.76 in SSW 4.6 mph 2.9 mph 51% 0.00 in
12:54 92.1 °F 69.0 °F 29.76 in SSW 11.5 mph 8.0 mph 47% 0.00 in
12:59 91.9 °F 70.0 °F 29.76 in East 5.8 mph 2.1 mph 49% 0.00 in
13:04 92.4 °F 69.2 °F 29.76 in SSE 11.5 mph 2.8 mph 47% 0.00 in
13:09 92.7 °F 68.9 °F 29.76 in NW 10.4 mph 4.2 mph 46% 0.00 in
13:14 92.9 °F 69.7 °F 29.76 in SSE 4.6 mph 2.5 mph 47% 0.00 in
13:19 93.5 °F 70.9 °F 29.75 in SSW 4.0 mph 5.6 mph 48% 0.00 in
13:24 93.5 °F 68.3 °F 29.75 in ESE 11.5 mph 4.8 mph 44% 0.00 in
13:29 92.9 °F 69.7 °F 29.75 in South 6.9 mph 2.6 mph 47% 0.00 in
13:34 92.9 °F 69.7 °F 29.75 in SSW 11.5 mph 3.7 mph 47% 0.00 in
13:39 93.3 °F 68.8 °F 29.75 in West 9.2 mph 5.1 mph 45% 0.00 in
13:44 93.8 °F 70.5 °F 29.74 in WSW 3.5 mph 2.3 mph 47% 0.00 in
13:49 93.8 °F 70.5 °F 29.74 in SSW 9.2 mph 2.3 mph 47% 0.00 in
13:54 93.5 °F 70.2 °F 29.74 in SW 16.1 mph 6.8 mph 47% 0.00 in
13:59 92.6 °F 70.6 °F 29.74 in South 9.2 mph 4.1 mph 49% 0.00 in
14:04 92.9 °F 70.3 °F 29.74 in SE 5.8 mph 2.8 mph 48% 0.00 in
14:09 93.5 °F 70.2 °F 29.74 in SSE 3.5 mph 2.4 mph 47% 0.00 in
14:14 93.8 °F 70.5 °F 29.74 in South 10.4 mph 4.5 mph 47% 0.00 in
14:19 93.3 °F 70.1 °F 29.73 in ESE 9.2 mph 4.3 mph 47% 0.00 in
14:24 93.0 °F 68.5 °F 29.73 in South 15.0 mph 8.2 mph 45% 0.00 in
14:29 93.1 °F 69.9 °F 29.73 in SW 10.4 mph 4.1 mph 47% 0.00 in
14:34 93.6 °F 68.4 °F 29.73 in South 16.1 mph 5.5 mph 44% 0.00 in
14:39 93.7 °F 69.2 °F 29.73 in SSE 7.0 mph 4.6 mph 45% 0.00 in
14:44 93.9 °F 68.7 °F 29.73 in SE 4.6 mph 2.6 mph 44% 0.00 in
14:49 93.7 °F 67.8 °F 29.73 in SSW 5.8 mph 3.0 mph 43% 0.00 in
14:54 93.8 °F 67.9 °F 29.73 in SSW 13.8 mph 9.0 mph 43% 0.00 in
14:59 93.8 °F 67.9 °F 29.73 in SW 4.6 mph 5.3 mph 43% 0.00 in
15:04 94.2 °F 68.3 °F 29.73 in SSE 11.5 mph 4.6 mph 43% 0.00 in
15:09 94.1 °F 68.9 °F 29.73 in East 10.4 mph 5.0 mph 44% 0.00 in
15:14 94.0 °F 68.1 °F 29.73 in SSW 11.5 mph 6.3 mph 43% 0.00 in
15:19 93.7 °F 67.8 °F 29.73 in South 9.2 mph 5.5 mph 43% 0.00 in
15:23 93.7 °F 67.1 °F 29.73 in SSW 10.4 mph 5.1 mph 42% 0.00 in
15:29 94.0 °F 66.7 °F 29.72 in South 11.5 mph 8.6 mph 41% 0.00 in
15:34 93.7 °F 66.4 °F 29.72 in SSE 11.5 mph 7.0 mph 41% 0.00 in
15:39 93.6 °F 66.4 °F 29.72 in SW 12.7 mph 7.7 mph 41% 0.00 in
15:44 93.6 °F 66.4 °F 29.72 in South 11.5 mph 6.6 mph 41% 0.00 in
15:49 93.8 °F 66.5 °F 29.72 in SSE 19.0 mph 6.9 mph 41% 0.00 in
15:54 94.0 °F 65.3 °F 29.73 in SW 13.8 mph 5.7 mph 39% 0.00 in
15:59 94.3 °F 66.3 °F 29.72 in SSW 9.2 mph 3.6 mph 40% 0.00 in
16:04 94.3 °F 66.3 °F 29.72 in South 11.5 mph 5.1 mph 40% 0.00 in
16:09 94.1 °F 67.5 °F 29.72 in SSE 9.2 mph 6.2 mph 42% 0.00 in
16:14 93.4 °F 66.9 °F 29.72 in SE 10.4 mph 4.7 mph 42% 0.00 in
16:19 93.5 °F 64.8 °F 29.72 in SE 17.3 mph 4.7 mph 39% 0.00 in
16:24 93.7 °F 67.1 °F 29.72 in SSW 8.1 mph 4.6 mph 42% 0.00 in
16:28 93.8 °F 66.5 °F 29.72 in South 11.5 mph 6.7 mph 41% 0.00 in
16:34 93.7 °F 67.1 °F 29.72 in SSE 10.4 mph 4.9 mph 42% 0.00 in
16:39 93.4 °F 66.9 °F 29.72 in SE 9.2 mph 4.4 mph 42% 0.00 in
16:44 93.6 °F 67.1 °F 29.72 in South 8.1 mph 6.0 mph 42% 0.00 in
16:49 93.5 °F 67.6 °F 29.72 in South 17.3 mph 5.6 mph 43% 0.00 in
16:54 93.4 °F 68.2 °F 29.72 in ESE 4.6 mph 2.3 mph 44% 0.00 in
16:59 93.5 °F 69.0 °F 29.72 in South 16.1 mph 5.0 mph 45% 0.00 in
17:04 93.6 °F 67.1 °F 29.72 in SSE 16.0 mph 3.5 mph 42% 0.00 in
17:09 93.4 °F 66.9 °F 29.71 in South 10.4 mph 6.3 mph 42% 0.00 in
17:14 93.3 °F 68.1 °F 29.72 in NNW 9.2 mph 5.0 mph 44% 0.00 in
17:19 92.9 °F 67.8 °F 29.71 in SSW 15.0 mph 6.3 mph 44% 0.00 in
17:24 92.8 °F 68.3 °F 29.71 in SSE 9.2 mph 7.3 mph 45% 0.00 in
17:29 92.9 °F 67.8 °F 29.71 in SSW 10.4 mph 6.8 mph 44% 0.00 in
17:34 92.3 °F 67.9 °F 29.71 in SE 10.4 mph 4.1 mph 45% 0.00 in
17:39 91.9 °F 67.5 °F 29.71 in SSW 15.0 mph 7.5 mph 45% 0.00 in
17:44 92.0 °F 67.0 °F 29.71 in South 13.8 mph 6.7 mph 44% 0.00 in
17:49 92.0 °F 67.0 °F 29.71 in SW 5.8 mph 3.7 mph 44% 0.00 in
17:54 92.1 °F 68.3 °F 29.70 in East 11.5 mph 2.5 mph 46% 0.00 in
17:59 92.5 °F 68.7 °F 29.71 in SSW 5.8 mph 3.1 mph 46% 0.00 in
18:03 92.4 °F 68.0 °F 29.71 in South 10.4 mph 6.5 mph 45% 0.00 in
18:09 91.7 °F 68.6 °F 29.70 in South 7.0 mph 5.5 mph 47% 0.00 in
18:14 91.6 °F 69.1 °F 29.70 in SSE 13.8 mph 9.1 mph 48% 0.00 in
18:19 91.6 °F 70.3 °F 29.71 in South 8.0 mph 4.4 mph 50% 0.00 in
18:24 91.5 °F 70.2 °F 29.71 in ESE 11.5 mph 5.6 mph 50% 0.00 in
18:29 91.1 °F 70.5 °F 29.71 in SE 6.0 mph 3.3 mph 51% 0.00 in
18:34 90.9 °F 70.3 °F 29.71 in SSE 13.8 mph 2.7 mph 51% 0.00 in
18:39 90.6 °F 70.6 °F 29.70 in SE 9.2 mph 5.1 mph 52% 0.00 in
18:44 90.6 °F 70.6 °F 29.70 in SSW 6.9 mph 3.4 mph 52% 0.00 in
18:49 90.5 °F 70.5 °F 29.70 in SSE 13.8 mph 5.4 mph 52% 0.00 in
18:54 90.3 °F 69.7 °F 29.70 in ENE 11.5 mph 4.7 mph 51% 0.00 in
18:59 90.3 °F 69.7 °F 29.70 in SSE 13.8 mph 5.5 mph 51% 0.00 in
19:04 90.1 °F 69.5 °F 29.70 in SE 11.5 mph 7.6 mph 51% 0.00 in
19:09 89.8 °F 69.3 °F 29.70 in South 11.5 mph 7.5 mph 51% 0.00 in
19:14 89.6 °F 69.1 °F 29.70 in South 9.2 mph 3.8 mph 51% 0.00 in
19:19 89.5 °F 69.5 °F 29.70 in South 3.5 mph 2.5 mph 52% 0.00 in
19:24 89.4 °F 68.9 °F 29.71 in SE 11.5 mph 7.4 mph 51% 0.00 in
19:29 89.3 °F 69.4 °F 29.71 in SSW 8.1 mph 7.5 mph 52% 0.00 in
19:34 89.2 °F 69.3 °F 29.71 in SE 6.9 mph 6.1 mph 52% 0.00 in
19:39 89.2 °F 69.3 °F 29.71 in South 13.8 mph 8.1 mph 52% 0.00 in
19:44 89.0 °F 69.1 °F 29.71 in East 10.4 mph 4.0 mph 52% 0.00 in
19:49 88.9 °F 69.6 °F 29.71 in SSW 5.8 mph 3.3 mph 53% 0.00 in
19:54 88.7 °F 69.4 °F 29.71 in SE 9.2 mph 2.3 mph 53% 0.00 in
19:59 88.6 °F 69.8 °F 29.71 in SE 10.4 mph 5.9 mph 54% 0.00 in
20:04 88.4 °F 69.6 °F 29.71 in NE 8.0 mph 2.2 mph 54% 0.00 in
20:09 88.2 °F 70.0 °F 29.71 in SSW 11.5 mph 4.9 mph 55% 0.00 in
20:14 88.0 °F 69.8 °F 29.71 in SSW 10.0 mph 5.4 mph 55% 0.00 in
20:19 87.9 °F 69.7 °F 29.71 in SSE 8.1 mph 2.0 mph 55% 0.00 in
20:24 87.7 °F 69.5 °F 29.71 in SE 6.9 mph 4.5 mph 55% 0.00 in
20:29 87.5 °F 68.8 °F 29.72 in SSW 11.5 mph 5.1 mph 54% 0.00 in
20:34 87.3 °F 69.2 °F 29.72 in South 8.1 mph 3.1 mph 55% 0.00 in
20:39 87.2 °F 69.1 °F 29.72 in South 5.8 mph 4.7 mph 55% 0.00 in
20:44 86.9 °F 68.8 °F 29.72 in SE 7.0 mph 3.2 mph 55% 0.00 in
20:49 86.7 °F 68.6 °F 29.72 in SSW 8.0 mph 3.5 mph 55% 0.00 in
20:54 86.5 °F 68.4 °F 29.72 in SSE 4.6 mph 2.5 mph 55% 0.00 in
20:59 86.4 °F 68.3 °F 29.72 in SSE 8.1 mph 4.2 mph 55% 0.00 in
21:04 86.4 °F 68.3 °F 29.73 in SW 9.2 mph 4.7 mph 55% 0.00 in
21:09 86.3 °F 68.2 °F 29.73 in ESE 6.9 mph 3.5 mph 55% 0.00 in
21:14 86.1 °F 68.0 °F 29.73 in South 8.1 mph 2.7 mph 55% 0.00 in
21:19 86.0 °F 68.5 °F 29.73 in South 5.8 mph 3.2 mph 56% 0.00 in
21:24 85.9 °F 68.4 °F 29.73 in ESE 2.3 mph 3.0 mph 56% 0.00 in
21:29 85.7 °F 68.2 °F 29.74 in SW 2.3 mph 4.7 mph 56% 0.00 in
21:34 85.6 °F 68.1 °F 29.74 in SE 4.6 mph 3.7 mph 56% 0.00 in
21:39 85.3 °F 68.3 °F 29.74 in South 6.9 mph 4.9 mph 57% 0.00 in
21:44 85.1 °F 68.2 °F 29.74 in ESE 6.0 mph 2.8 mph 57% 0.00 in
21:49 85.0 °F 68.6 °F 29.74 in East 5.8 mph 2.4 mph 58% 0.00 in
21:54 84.8 °F 68.4 °F 29.75 in SE 6.9 mph 3.0 mph 58% 0.00 in
21:59 84.7 °F 68.8 °F 29.75 in East 3.5 mph 1.3 mph 59% 0.00 in
22:04 84.5 °F 68.6 °F 29.75 in SSE 8.1 mph 4.3 mph 59% 0.00 in
22:09 84.3 °F 68.9 °F 29.76 in South 6.9 mph 3.3 mph 60% 0.00 in
22:14 84.2 °F 68.8 °F 29.76 in SSE 8.1 mph 5.0 mph 60% 0.00 in
22:19 84.1 °F 69.2 °F 29.76 in South 9.2 mph 3.3 mph 61% 0.00 in
22:24 83.9 °F 69.0 °F 29.76 in SSW 6.9 mph 3.1 mph 61% 0.00 in
22:29 83.8 °F 69.4 °F 29.76 in SSW 6.0 mph 3.0 mph 62% 0.00 in
22:34 83.8 °F 69.4 °F 29.76 in SSE 6.9 mph 4.1 mph 62% 0.00 in
22:39 83.7 °F 69.3 °F 29.76 in SSE 3.5 mph 3.9 mph 62% 0.00 in
22:44 83.6 °F 69.2 °F 29.76 in South 5.8 mph 3.9 mph 62% 0.00 in
22:49 83.5 °F 69.6 °F 29.76 in South 5.8 mph 4.2 mph 63% 0.00 in
22:54 83.4 °F 69.5 °F 29.76 in South 6.9 mph 3.8 mph 63% 0.00 in
22:59 83.3 °F 69.8 °F 29.76 in SSW 3.5 mph 2.1 mph 64% 0.00 in
23:04 83.1 °F 70.1 °F 29.76 in SSE 4.6 mph 2.1 mph 65% 0.00 in
23:09 83.0 °F 70.0 °F 29.76 in ESE 4.6 mph 2.8 mph 65% 0.00 in
23:14 82.9 °F 70.4 °F 29.76 in SSW 9.2 mph 3.3 mph 66% 0.00 in
23:19 82.8 °F 70.3 °F 29.76 in South 8.1 mph 5.8 mph 66% 0.00 in
23:24 82.7 °F 70.2 °F 29.76 in South 5.8 mph 3.5 mph 66% 0.00 in
23:29 82.7 °F 70.2 °F 29.76 in ESE 5.8 mph 3.9 mph 66% 0.00 in
23:34 82.6 °F 70.1 °F 29.76 in South 8.1 mph 4.9 mph 66% 0.00 in
23:39 82.6 °F 70.1 °F 29.76 in SE 3.5 mph 2.2 mph 66% 0.00 in
23:44 82.6 °F 70.1 °F 29.76 in SW 5.8 mph 3.7 mph 66% 0.00 in
23:49 82.5 °F 70.0 °F 29.77 in East 5.8 mph 4.2 mph 66% 0.00 in
23:54 82.4 °F 70.3 °F 29.76 in SSW 4.0 mph 2.6 mph 67% 0.00 in
23:59 82.4 °F 70.3 °F 29.77 in ESE 4.6 mph 3.6 mph 67% 0.00 in
Live Lenexa Weather
Compliments of Weather Underground - 1.75 mb